Time;durP1;ratioP1;P1;durP2;ratioP2;P2;SDS_P1;SDS_P2;PMS_P1;PMS_P2;Temp;Humidity;BMP_temperature;BMP_pressure;BME280_temperature;BME280_humidity;BME280_pressure;Samples;Min_cycle;Max_cycle;Signal;HPM_P1;HPM_P2
2023/08/20 00:00:04;;;;;;;12.27;9.45;;;;;;;23.56;100.00;100816.47;5054346;28;20033;-74
2023/08/20 00:02:33;;;;;;;10.65;9.63;;;;;;;23.19;100.00;100833.66;5052188;28;20127;-74
2023/08/20 00:04:58;;;;;;;11.02;9.35;;;;;;;23.25;100.00;100838.44;5034163;28;20083;-74
2023/08/20 00:07:24;;;;;;;14.52;9.45;;;;;;;23.64;100.00;100870.50;5033821;28;20048;-74
2023/08/20 00:09:50;;;;;;;12.63;10.57;;;;;;;23.21;100.00;100779.06;5051917;28;20561;-74
2023/08/20 00:12:15;;;;;;;15.65;10.55;;;;;;;23.74;100.00;100880.16;5051575;28;20031;-73
2023/08/20 00:14:58;;;;;;;15.60;11.27;;;;;;;23.76;100.00;100880.91;5051648;28;20048;-74
2023/08/20 00:17:26;;;;;;;14.80;10.60;;;;;;;23.44;100.00;100826.88;5051514;28;20036;-73
2023/08/20 00:19:53;;;;;;;15.93;9.82;;;;;;;23.54;100.00;100891.06;5051581;28;20040;-72
2023/08/20 00:22:21;;;;;;;13.18;9.55;;;;;;;23.63;100.00;100822.09;5052081;28;20167;-74
2023/08/20 00:24:47;;;;;;;14.68;9.60;;;;;;;23.57;100.00;100818.13;5033649;28;20096;-73
2023/08/20 00:27:12;;;;;;;14.30;9.40;;;;;;;23.63;100.00;100876.63;5048380;28;20468;-74
2023/08/20 00:29:38;;;;;;;11.93;9.40;;;;;;;23.84;100.00;100868.22;5071530;28;20081;-75
2023/08/20 00:32:03;;;;;;;11.40;8.55;;;;;;;23.82;100.00;100856.25;5070567;28;20030;-74
2023/08/20 00:34:29;;;;;;;12.40;8.45;;;;;;;23.10;100.00;100756.44;5052713;28;20501;-74
2023/08/20 00:36:54;;;;;;;11.80;9.15;;;;;;;23.63;100.00;100848.06;5070962;28;20032;-73
2023/08/20 00:39:19;;;;;;;10.65;8.95;;;;;;;23.42;100.00;100880.66;5053292;28;20025;-74
2023/08/20 00:41:45;;;;;;;11.05;8.75;;;;;;;23.15;100.00;100779.50;5051280;28;20033;-74
2023/08/20 00:44:11;;;;;;;9.43;8.35;;;;;;;23.35;100.00;100792.00;5051504;28;20506;-74
2023/08/20 00:46:36;;;;;;;10.40;8.57;;;;;;;23.54;100.00;100812.31;5051640;28;20025;-74
2023/08/20 00:49:02;;;;;;;11.30;8.48;;;;;;;23.31;100.00;100777.56;5050760;28;20067;-73
2023/08/20 00:51:28;;;;;;;10.23;8.43;;;;;;;23.61;100.00;100832.56;5051240;28;20057;-74
2023/08/20 00:53:54;;;;;;;9.93;8.70;;;;;;;23.89;100.00;100860.09;5051567;28;20024;-74
2023/08/20 00:56:20;;;;;;;10.60;9.00;;;;;;;23.60;100.00;100786.78;5032842;28;20036;-74
2023/08/20 00:58:45;;;;;;;9.55;8.55;;;;;;;23.69;100.00;100809.50;5051019;28;20028;-73
2023/08/20 01:01:11;;;;;;;10.60;8.45;;;;;;;23.26;100.00;100808.13;5051262;28;20029;-74
2023/08/20 01:03:36;;;;;;;9.13;8.15;;;;;;;23.22;100.00;100798.88;5050690;28;20057;-75
2023/08/20 01:06:33;;;;;;;9.32;8.43;;;;;;;23.68;100.00;100845.97;5051416;28;20063;-74
2023/08/20 01:09:31;;;;;;;8.98;7.85;;;;;;;23.77;100.00;100846.19;5021468;28;20092;-74
2023/08/20 01:12:00;;;;;;;10.05;8.52;;;;;;;23.64;100.00;100849.72;5003448;28;20049;-73
2023/08/20 01:14:26;;;;;;;9.50;8.60;;;;;;;23.26;100.00;100796.00;5031130;28;20037;-71
2023/08/20 01:16:51;;;;;;;12.60;9.00;;;;;;;23.43;100.00;100799.25;5030640;28;20171;-74
2023/08/20 01:19:20;;;;;;;10.18;9.02;;;;;;;23.16;100.00;100770.75;5030362;28;20108;-73
2023/08/20 01:22:10;;;;;;;10.30;8.82;;;;;;;23.80;100.00;100830.41;5031053;28;20037;-74
2023/08/20 01:24:59;;;;;;;13.68;8.60;;;;;;;23.45;100.00;100790.44;5030937;28;20030;-74
2023/08/20 01:27:42;;;;;;;9.90;8.88;;;;;;;23.36;100.00;100835.16;5034788;28;20037;-74
2023/08/20 01:30:09;;;;;;;11.20;8.65;;;;;;;23.51;100.00;100821.16;5012531;28;20033;-73
2023/08/20 01:32:36;;;;;;;11.20;8.60;;;;;;;23.14;100.00;100776.06;5045547;28;20098;-76
2023/08/20 01:35:02;;;;;;;9.43;8.43;;;;;;;23.46;100.00;100799.88;5045372;28;20178;-74
2023/08/20 01:37:28;;;;;;;9.05;8.15;;;;;;;23.26;100.00;100834.09;5031293;28;20094;-75
2023/08/20 01:39:53;;;;;;;10.32;8.30;;;;;;;23.44;100.00;100809.53;5030780;28;20567;-74
2023/08/20 01:42:19;;;;;;;9.05;8.15;;;;;;;23.45;100.00;100780.03;5030281;28;20030;-73
2023/08/20 01:44:44;;;;;;;9.45;8.27;;;;;;;23.39;100.00;100814.22;5030819;28;20078;-74
2023/08/20 01:47:09;;;;;;;8.82;7.68;;;;;;;23.40;100.00;100805.47;5012940;28;20025;-76
2023/08/20 01:49:35;;;;;;;9.80;8.15;;;;;;;23.54;100.00;100766.41;5031099;28;20496;-74
2023/08/20 01:52:00;;;;;;;9.30;8.35;;;;;;;23.14;100.00;100763.09;5030620;28;20417;-73
2023/08/20 01:54:26;;;;;;;9.45;8.45;;;;;;;23.49;100.00;100801.44;5030017;28;20167;-72
2023/08/20 01:56:51;;;;;;;13.13;9.35;;;;;;;22.82;100.00;100786.91;5031305;28;20029;-72
2023/08/20 01:59:18;;;;;;;13.43;8.90;;;;;;;22.74;100.00;100758.06;5030476;28;20044;-73
2023/08/20 02:01:43;;;;;;;9.32;8.07;;;;;;;23.35;100.00;100802.38;5030177;28;21020;-74
2023/08/20 02:04:09;;;;;;;9.40;7.60;;;;;;;22.99;100.00;100773.66;5030093;28;20112;-72
2023/08/20 02:06:34;;;;;;;10.88;8.10;;;;;;;23.16;100.00;100791.50;5030216;28;20056;-73
2023/08/20 02:09:00;;;;;;;8.75;7.78;;;;;;;23.02;100.00;100745.75;5041591;28;20045;-74
2023/08/20 02:11:25;;;;;;;10.88;7.90;;;;;;;23.19;100.00;100806.91;5050106;28;20033;-74
2023/08/20 02:13:50;;;;;;;10.23;8.02;;;;;;;23.21;100.00;100753.94;5050755;28;20033;-75
2023/08/20 02:16:16;;;;;;;10.88;7.68;;;;;;;23.47;100.00;100805.91;5054298;28;20514;-74
2023/08/20 02:18:42;;;;;;;13.32;8.30;;;;;;;23.02;100.00;100750.09;5070071;28;20513;-74
2023/08/20 02:21:07;;;;;;;10.50;8.55;;;;;;;23.73;100.00;100734.81;5066154;28;20060;-78
2023/08/20 02:23:33;;;;;;;10.45;8.07;;;;;;;23.67;100.00;100732.66;5056992;28;20029;-71
2023/08/20 02:25:58;;;;;;;8.60;7.80;;;;;;;23.59;100.00;100787.69;5053841;28;20037;-71
2023/08/20 02:28:24;;;;;;;10.52;7.75;;;;;;;23.51;100.00;100787.38;5053768;28;20128;-72
2023/08/20 02:30:49;;;;;;;8.13;7.32;;;;;;;22.89;100.00;100734.53;5062517;28;20487;-73
2023/08/20 02:33:15;;;;;;;8.80;7.90;;;;;;;22.94;100.00;100742.81;5058372;28;20032;-73
2023/08/20 02:35:40;;;;;;;9.77;7.70;;;;;;;23.30;100.00;100788.81;5051127;28;20165;-73
2023/08/20 02:38:06;;;;;;;9.15;7.53;;;;;;;23.59;100.00;100798.09;5052940;28;20037;-74
2023/08/20 02:40:32;;;;;;;9.85;7.53;;;;;;;23.37;100.00;100795.31;5053127;28;20029;-74
2023/08/20 02:42:58;;;;;;;11.80;7.85;;;;;;;23.14;100.00;100759.66;5052829;28;20040;-74
2023/08/20 02:45:23;;;;;;;9.23;7.70;;;;;;;23.20;100.00;100777.41;5052995;28;20025;-73
2023/08/20 02:47:49;;;;;;;8.75;7.95;;;;;;;23.23;100.00;100783.22;5053227;28;20036;-73
2023/08/20 02:50:15;;;;;;;9.65;7.30;;;;;;;22.73;100.00;100746.00;5052958;28;20021;-73
2023/08/20 02:52:42;;;;;;;8.50;7.65;;;;;;;23.27;100.00;100778.66;5052895;28;20029;-73
2023/08/20 02:55:07;;;;;;;11.00;8.02;;;;;;;23.24;100.00;100810.84;5052690;28;20025;-72
2023/08/20 02:57:33;;;;;;;8.98;8.00;;;;;;;22.94;100.00;100739.38;5053038;28;20043;-72
2023/08/20 02:59:58;;;;;;;8.63;7.82;;;;;;;22.88;100.00;100748.41;5052776;28;20036;-73
2023/08/20 03:02:24;;;;;;;10.52;7.80;;;;;;;23.06;100.00;100795.66;5052830;28;20037;-72
2023/08/20 03:04:49;;;;;;;12.13;8.30;;;;;;;22.82;100.00;100741.03;5034969;28;20411;-72
2023/08/20 03:07:14;;;;;;;9.52;8.00;;;;;;;23.07;100.00;100799.91;5052205;28;20403;-72
2023/08/20 03:09:40;;;;;;;11.70;7.90;;;;;;;23.23;100.00;100775.41;5052255;28;20052;-72
2023/08/20 03:12:06;;;;;;;9.50;8.05;;;;;;;23.23;100.00;100787.59;5052775;28;20400;-72
2023/08/20 03:14:31;;;;;;;9.95;8.48;;;;;;;22.89;100.00;100819.28;5052867;28;20029;-72
2023/08/20 03:16:56;;;;;;;11.32;8.98;;;;;;;22.18;100.00;100753.91;5052142;28;20029;-71
2023/08/20 03:19:22;;;;;;;13.68;9.20;;;;;;;22.48;100.00;100740.75;5033771;28;20033;-72
2023/08/20 03:21:47;;;;;;;10.65;8.43;;;;;;;22.68;100.00;100711.78;5051859;28;20114;-72
2023/08/20 03:24:13;;;;;;;13.73;8.93;;;;;;;22.53;100.00;100795.69;5052040;28;20083;-71
2023/08/20 03:26:38;;;;;;;11.00;9.05;;;;;;;22.47;100.00;100697.59;5051148;28;20120;-72
2023/08/20 03:29:04;;;;;;;12.63;9.40;;;;;;;22.55;100.00;100726.44;5052265;28;20385;-71
2023/08/20 03:31:29;;;;;;;12.75;9.57;;;;;;;23.04;100.00;100766.38;5034432;28;20068;-72
2023/08/20 03:33:54;;;;;;;9.70;8.10;;;;;;;22.94;100.00;100778.31;5052491;28;20032;-72
2023/08/20 03:36:20;;;;;;;14.75;8.25;;;;;;;22.66;100.00;100703.28;5033867;28;20025;-72
2023/08/20 03:38:45;;;;;;;9.57;7.82;;;;;;;22.58;100.00;100710.72;5051939;28;20056;-73
2023/08/20 03:41:11;;;;;;;8.80;8.00;;;;;;;22.94;100.00;100778.31;5051382;28;20506;-73
2023/08/20 03:43:36;;;;;;;10.95;7.25;;;;;;;23.25;100.00;100773.56;5052277;28;20112;-72
2023/08/20 03:46:02;;;;;;;9.63;8.18;;;;;;;23.38;100.00;100764.97;5033873;28;20415;-72
2023/08/20 03:48:28;;;;;;;8.40;7.55;;;;;;;23.25;100.00;100768.38;5051326;28;20418;-72
2023/08/20 03:50:53;;;;;;;9.32;8.10;;;;;;;23.17;100.00;100764.66;5051858;28;20035;-72
2023/08/20 03:53:18;;;;;;;9.43;7.95;;;;;;;22.95;100.00;100738.47;5051756;28;20450;-72
2023/08/20 03:55:48;;;;;;;11.45;7.97;;;;;;;23.01;100.00;100712.13;5033775;28;20035;-72
2023/08/20 03:58:14;;;;;;;8.63;7.75;;;;;;;23.60;100.00;100771.19;5051742;28;20519;-72
2023/08/20 04:00:39;;;;;;;9.13;7.88;;;;;;;23.15;100.00;100717.22;5033621;28;20495;-72
2023/08/20 04:03:05;;;;;;;8.50;7.55;;;;;;;23.22;100.00;100719.28;5051940;28;20017;-72
2023/08/20 04:05:38;;;;;;;10.77;7.82;;;;;;;23.38;100.00;100695.72;5051690;28;20479;-71
2023/08/20 04:08:04;;;;;;;8.65;7.60;;;;;;;23.67;100.00;100790.59;5052611;28;20422;-72
2023/08/20 04:10:31;;;;;;;10.73;7.60;;;;;;;23.71;100.00;100776.47;5051566;28;20029;-72
2023/08/20 04:12:56;;;;;;;8.50;6.68;;;;;;;23.29;100.00;100720.50;5051836;28;20037;-71
2023/08/20 04:15:22;;;;;;;8.38;7.25;;;;;;;23.84;100.00;100773.84;5051097;28;20036;-72
2023/08/20 04:17:48;;;;;;;8.52;7.25;;;;;;;23.86;100.00;100777.16;5051251;28;20532;-71
2023/08/20 04:20:14;;;;;;;8.00;7.00;;;;;;;23.58;100.00;100715.94;5051320;28;20119;-72
2023/08/20 04:22:40;;;;;;;10.45;7.32;;;;;;;23.65;100.00;100717.16;5051002;28;20057;-71
2023/08/20 04:25:06;;;;;;;9.05;7.32;;;;;;;24.02;100.00;100773.44;5051375;28;20260;-72
2023/08/20 04:27:32;;;;;;;9.48;6.78;;;;;;;23.81;100.00;100730.72;5051323;28;20032;-72
2023/08/20 04:29:57;;;;;;;8.73;7.47;;;;;;;23.91;100.00;100715.31;5033298;28;20033;-71
2023/08/20 04:32:23;;;;;;;7.85;7.05;;;;;;;24.14;100.00;100737.09;5033215;28;20029;-71
2023/08/20 04:34:49;;;;;;;10.00;6.80;;;;;;;24.25;100.00;100789.97;5033002;28;20036;-72
2023/08/20 04:37:15;;;;;;;9.75;6.88;;;;;;;24.48;100.00;100786.53;5050781;28;20103;-72
2023/08/20 04:39:40;;;;;;;10.20;7.15;;;;;;;24.06;100.00;100709.91;5032416;28;20460;-71
2023/08/20 04:42:06;;;;;;;9.32;6.88;;;;;;;24.39;100.00;100729.16;5051345;28;20032;-72
2023/08/20 04:44:31;;;;;;;7.47;6.68;;;;;;;24.28;100.00;100727.38;5053325;28;20033;-72
2023/08/20 04:46:57;;;;;;;6.97;6.25;;;;;;;24.65;100.00;100778.34;5032950;28;20033;-72
2023/08/20 04:49:25;;;;;;;7.50;6.78;;;;;;;24.70;100.00;100780.63;5050890;28;20039;-72
2023/08/20 04:51:51;;;;;;;10.93;7.20;;;;;;;24.42;100.00;100713.34;5050682;28;20021;-72
2023/08/20 04:54:16;;;;;;;8.85;7.40;;;;;;;24.51;100.00;100700.50;5050896;28;21299;-70
2023/08/20 04:56:42;;;;;;;10.98;7.10;;;;;;;24.90;100.00;100735.75;5033055;28;20056;-71
2023/08/20 04:59:07;;;;;;;9.07;7.55;;;;;;;25.06;100.00;100757.06;5050374;28;20037;-73
2023/08/20 05:01:33;;;;;;;9.30;8.35;;;;;;;25.21;100.00;100750.72;5050610;28;20124;-71
2023/08/20 05:03:58;;;;;;;10.18;8.43;;;;;;;25.00;100.00;100694.25;5050672;28;20051;-72
2023/08/20 05:06:23;;;;;;;8.40;7.20;;;;;;;25.46;100.00;100745.31;5050389;28;20051;-71
2023/08/20 05:08:49;;;;;;;11.13;7.18;;;;;;;25.69;100.00;100746.94;5050392;28;20049;-71
2023/08/20 05:11:14;;;;;;;7.82;6.53;;;;;;;25.33;100.00;100648.22;5032586;28;20069;-71
2023/08/20 05:13:39;;;;;;;7.40;6.70;;;;;;;26.09;100.00;100733.38;5050706;28;20447;-71
2023/08/20 05:16:05;;;;;;;9.10;6.75;;;;;;;26.18;100.00;100737.88;5032689;28;20542;-71
2023/08/20 05:18:30;;;;;;;7.80;7.10;;;;;;;26.52;100.00;100740.22;5050450;28;20040;-72
2023/08/20 05:20:56;;;;;;;7.88;6.53;;;;;;;26.23;100.00;100673.97;5050029;28;20032;-70
2023/08/20 05:23:21;;;;;;;9.27;7.13;;;;;;;26.02;100.00;100687.88;5049893;28;20539;-71
2023/08/20 05:25:46;;;;;;;9.50;6.97;;;;;;;26.31;100.00;100707.22;5050597;28;20036;-72
2023/08/20 05:28:12;;;;;;;9.60;6.80;;;;;;;26.12;100.00;100671.41;5050419;28;20115;-71
2023/08/20 05:30:37;;;;;;;8.73;6.82;;;;;;;26.78;100.00;100752.94;5050618;28;20033;-73
2023/08/20 05:33:03;;;;;;;11.65;6.72;;;;;;;26.76;100.00;100740.00;5050604;28;20029;-73
2023/08/20 05:35:28;;;;;;;7.53;6.82;;;;;;;26.81;100.00;100709.13;5050221;28;20027;-71
2023/08/20 05:37:54;;;;;;;9.18;7.10;;;;;;;27.17;100.00;100732.16;5050588;28;20403;-72
2023/08/20 05:40:20;;;;;;;8.95;6.65;;;;;;;27.09;100.00;100690.19;5050219;28;20037;-72
2023/08/20 05:42:46;;;;;;;12.70;6.65;;;;;;;27.14;100.00;100701.06;5050417;28;20407;-72
2023/08/20 05:45:11;;;;;;;8.48;6.65;;;;;;;27.21;100.00;100701.38;5050450;28;20041;-73
2023/08/20 05:47:37;;;;;;;8.75;5.95;;;;;;;27.95;100.00;100727.09;5032605;28;20029;-72
2023/08/20 05:50:02;;;;;;;6.90;6.30;;;;;;;27.62;100.00;100671.69;5052999;28;20059;-72
2023/08/20 05:52:27;;;;;;;7.80;5.93;;;;;;;27.56;100.00;100648.69;5058430;28;20055;-72
2023/08/20 05:54:53;;;;;;;7.43;6.30;;;;;;;28.09;100.00;100687.47;5059472;28;20475;-72
2023/08/20 05:57:18;;;;;;;8.77;6.43;;;;;;;28.41;100.00;100671.47;5036437;28;20029;-72
2023/08/20 05:59:44;;;;;;;8.23;6.03;;;;;;;28.35;100.00;100729.59;5053994;28;20400;-72
2023/08/20 06:02:09;;;;;;;6.68;6.03;;;;;;;28.19;100.00;100684.84;5054153;28;20035;-73
2023/08/20 06:04:34;;;;;;;7.20;6.28;;;;;;;28.36;100.00;100671.06;5054044;28;20112;-72
2023/08/20 06:07:00;;;;;;;7.50;5.90;;;;;;;28.46;100.00;100664.03;5035740;28;20040;-72
2023/08/20 06:09:25;;;;;;;9.43;5.85;;;;;;;28.97;100.00;100667.09;5053570;28;20438;-72
2023/08/20 06:11:51;;;;;;;10.27;6.18;;;;;;;28.94;100.00;100706.66;5054056;28;20401;-72
2023/08/20 06:14:17;;;;;;;7.20;5.68;;;;;;;29.00;100.00;100631.91;5053453;28;20561;-73
2023/08/20 06:16:42;;;;;;;9.93;5.90;;;;;;;28.97;100.00;100648.78;5053802;28;20561;-72
2023/08/20 06:19:08;;;;;;;7.05;5.90;;;;;;;29.20;100.00;100692.97;5053682;28;20070;-71
2023/08/20 06:21:33;;;;;;;7.07;5.65;;;;;;;29.28;100.00;100678.16;5053149;28;20495;-72
2023/08/20 06:24:00;;;;;;;6.10;5.60;;;;;;;30.07;100.00;100675.78;5053645;28;20036;-71
2023/08/20 06:26:26;;;;;;;6.55;5.68;;;;;;;30.02;100.00;100655.22;5053625;28;20503;-72
2023/08/20 06:28:51;;;;;;;6.20;5.60;;;;;;;30.33;100.00;100677.47;5053321;28;20033;-71
2023/08/20 06:31:17;;;;;;;6.60;5.80;;;;;;;29.94;100.00;100626.28;5053251;28;20029;-69
2023/08/20 06:33:42;;;;;;;8.23;5.72;;;;;;;30.29;100.00;100581.63;5053010;28;20033;-71
2023/08/20 06:36:07;;;;;;;6.55;5.15;;;;;;;29.81;100.00;100562.91;5052982;28;20488;-72
2023/08/20 06:38:33;;;;;;;5.85;5.25;;;;;;;30.31;100.00;100644.47;5053319;28;20025;-70
2023/08/20 06:40:58;;;;;;;5.93;5.22;;;;;;;30.12;100.00;100623.63;5052972;28;20168;-72
2023/08/20 06:43:23;;;;;;;6.82;5.57;;;;;;;30.33;100.00;100563.78;5053110;28;20040;-72
2023/08/20 06:45:49;;;;;;;6.05;4.97;;;;;;;30.58;100.00;100642.53;5053162;28;20035;-71
2023/08/20 06:48:16;;;;;;;7.13;5.70;;;;;;;30.26;100.00;100612.59;5052961;28;20086;-70
2023/08/20 06:50:41;;;;;;;6.32;5.25;;;;;;;30.58;100.00;100608.38;5052691;28;20518;-70
2023/08/20 06:53:07;;;;;;;8.13;5.00;;;;;;;30.98;100.00;100641.97;5053056;28;20053;-71
2023/08/20 06:55:32;;;;;;;12.15;5.18;;;;;;;31.57;100.00;100627.91;5053042;28;20834;-71
2023/08/20 06:57:58;;;;;;;5.50;5.00;;;;;;;30.91;100.00;100585.78;5053200;28;20029;-70
2023/08/20 07:00:23;;;;;;;9.20;4.75;;;;;;;31.22;100.00;100628.13;5051468;28;20037;-70
2023/08/20 07:02:48;;;;;;;7.43;4.45;;;;;;;31.38;100.00;100546.66;5052858;28;20135;-70
2023/08/20 07:05:14;;;;;;;6.03;4.43;;;;;;;31.79;100.00;100571.19;5052703;28;20028;-71
2023/08/20 07:07:40;;;;;;;4.78;4.35;;;;;;;31.43;100.00;100558.34;5052737;28;20032;-71
2023/08/20 07:10:06;;;;;;;7.38;4.50;;;;;;;32.13;100.00;100616.63;5034284;28;20091;-71
2023/08/20 07:12:31;;;;;;;7.03;4.90;;;;;;;32.37;100.00;100601.59;5034846;28;20069;-71
2023/08/20 07:14:57;;;;;;;6.63;4.53;;;;;;;31.60;100.00;100623.13;5052309;28;20506;-72
2023/08/20 07:17:22;;;;;;;6.88;4.60;;;;;;;32.17;100.00;100558.19;5034525;28;20427;-72
2023/08/20 07:19:47;;;;;;;5.97;4.70;;;;;;;31.97;100.00;100582.41;5052705;28;20037;-72
2023/08/20 07:22:13;;;;;;;7.78;4.82;;;;;;;32.35;100.00;100600.94;5052571;28;20032;-72
2023/08/20 07:24:38;;;;;;;7.32;4.60;;;;;;;31.67;100.00;100547.03;5052300;28;20036;-71
2023/08/20 07:27:10;;;;;;;8.43;4.50;;;;;;;32.39;100.00;100583.00;5052236;28;20407;-71
2023/08/20 07:29:36;;;;;;;7.65;4.35;;;;;;;32.44;100.00;100559.63;5052352;28;20068;-72
2023/08/20 07:32:03;;;;;;;7.63;4.38;;;;;;;33.04;100.00;100547.53;5052473;28;20080;-70
2023/08/20 07:34:28;;;;;;;5.65;4.43;;;;;;;32.37;100.00;100513.88;5051869;28;20049;-70
2023/08/20 07:36:54;;;;;;;7.30;4.50;;;;;;;33.04;100.00;100559.94;5052150;28;20071;-71
2023/08/20 07:39:19;;;;;;;5.85;4.55;;;;;;;32.70;100.00;100568.13;5051951;28;20466;-71
2023/08/20 07:41:45;;;;;;;6.97;5.00;;;;;;;32.56;100.00;100544.28;5033806;28;20029;-71
2023/08/20 07:44:10;;;;;;;9.45;5.10;;;;;;;33.60;100.00;100525.28;5051522;28;20033;-71
2023/08/20 07:46:35;;;;;;;4.93;4.15;;;;;;;33.80;100.00;100525.59;5052075;28;20033;-71
2023/08/20 07:49:01;;;;;;;6.97;4.18;;;;;;;33.58;100.00;100535.19;5051435;28;20538;-71
2023/08/20 07:51:26;;;;;;;6.38;4.45;;;;;;;33.10;100.00;100575.06;5051933;28;20025;-72
2023/08/20 07:53:52;;;;;;;10.10;5.07;;;;;;;33.20;100.00;100551.91;5051414;28;20029;-71
2023/08/20 07:56:17;;;;;;;7.97;5.15;;;;;;;33.25;100.00;100575.94;5051910;28;20119;-71
2023/08/20 07:58:43;;;;;;;7.88;4.63;;;;;;;32.60;100.00;100530.63;5051705;28;20037;-71
2023/08/20 08:01:08;;;;;;;6.15;4.95;;;;;;;33.17;100.00;100553.09;5051126;28;20033;-71
2023/08/20 08:03:34;;;;;;;5.80;5.03;;;;;;;33.38;100.00;100555.09;5051323;28;20060;-71
2023/08/20 08:05:59;;;;;;;9.27;5.00;;;;;;;33.82;100.00;100516.50;5051657;28;20116;-71
2023/08/20 08:08:25;;;;;;;7.25;4.97;;;;;;;33.89;100.00;100508.69;5051361;28;20025;-72
2023/08/20 08:10:50;;;;;;;5.70;4.55;;;;;;;33.63;100.00;100546.03;5051581;28;20463;-72
2023/08/20 08:13:20;;;;;;;5.72;4.93;;;;;;;33.67;100.00;100547.34;5050815;28;20072;-71
2023/08/20 08:15:46;;;;;;;6.35;4.40;;;;;;;33.83;100.00;100473.25;5051864;28;20380;-72
2023/08/20 08:18:11;;;;;;;7.80;4.85;;;;;;;34.02;100.00;100538.78;5051466;28;20085;-71
2023/08/20 08:20:37;;;;;;;6.47;5.13;;;;;;;34.76;100.00;100510.53;5051229;28;20119;-70
2023/08/20 08:23:03;;;;;;;6.55;5.10;;;;;;;33.84;100.00;100484.63;5051729;28;20033;-72
2023/08/20 08:25:28;;;;;;;6.30;5.18;;;;;;;34.33;100.00;100508.75;5033574;28;20404;-72
2023/08/20 08:27:54;;;;;;;7.30;5.00;;;;;;;34.60;100.00;100482.50;5033704;28;20460;-72
2023/08/20 08:30:19;;;;;;;7.10;5.03;;;;;;;34.68;100.00;100497.44;5050923;28;20514;-71
2023/08/20 08:32:45;;;;;;;6.97;5.20;;;;;;;34.94;100.00;100529.47;5050746;28;20111;-71
2023/08/20 08:35:10;;;;;;;7.28;5.25;;;;;;;33.84;100.00;100508.41;5051270;28;20029;-71
2023/08/20 08:37:36;;;;;;;8.20;5.30;;;;;;;33.89;100.00;100511.34;5050690;28;20037;-72
2023/08/20 08:40:05;;;;;;;8.23;5.50;;;;;;;34.72;100.00;100541.00;5050581;28;20105;-71
2023/08/20 08:42:33;;;;;;;8.30;5.32;;;;;;;34.09;100.00;100521.19;5050611;28;20531;-71
2023/08/20 08:45:00;;;;;;;6.65;5.22;;;;;;;34.48;100.00;100536.00;5050562;28;20025;-71
2023/08/20 08:47:26;;;;;;;8.27;5.32;;;;;;;34.91;100.00;100467.19;5032898;28;20035;-71
2023/08/20 08:49:54;;;;;;;6.13;4.57;;;;;;;34.14;100.00;100488.16;5051033;28;20032;-71
2023/08/20 08:52:22;;;;;;;6.15;5.05;;;;;;;35.21;100.00;100531.41;5032866;28;20541;-70
2023/08/20 08:54:48;;;;;;;9.45;5.25;;;;;;;34.38;100.00;100479.94;5032928;28;20171;-70
2023/08/20 08:57:14;;;;;;;6.75;4.93;;;;;;;34.69;100.00;100501.69;5050734;28;20032;-71
2023/08/20 08:59:40;;;;;;;9.25;5.20;;;;;;;34.51;100.00;100525.88;5032769;28;20033;-72
2023/08/20 09:02:10;;;;;;;5.47;4.97;;;;;;;34.39;100.00;100463.91;5050415;28;20503;-71
2023/08/20 09:04:40;;;;;;;7.43;5.22;;;;;;;35.12;100.00;100507.91;5050898;28;20126;-71
2023/08/20 09:07:11;;;;;;;6.60;4.80;;;;;;;35.28;100.00;100467.97;5050619;28;20037;-71
2023/08/20 09:09:38;;;;;;;7.82;4.40;;;;;;;35.46;100.00;100493.00;5032495;28;20534;-71
2023/08/20 09:12:13;;;;;;;8.30;4.60;;;;;;;35.04;100.00;100508.84;5032467;28;20025;-71
2023/08/20 09:14:39;;;;;;;8.18;5.15;;;;;;;34.48;100.00;100517.50;5050338;28;20025;-72
2023/08/20 09:17:04;;;;;;;7.85;4.57;;;;;;;34.72;100.00;100515.38;5050653;28;20036;-71
2023/08/20 09:19:39;;;;;;;7.72;4.80;;;;;;;35.92;100.00;100466.88;5050336;28;20055;-72
2023/08/20 09:22:05;;;;;;;7.05;4.60;;;;;;;35.18;100.00;100475.41;5032638;28;20419;-71
2023/08/20 09:24:35;;;;;;;6.40;4.55;;;;;;;35.81;100.00;100466.59;5034691;28;20021;-71
2023/08/20 09:27:03;;;;;;;5.47;4.32;;;;;;;35.25;100.00;100448.00;5054545;28;20025;-71
2023/08/20 09:29:32;;;;;;;6.68;4.40;;;;;;;35.32;100.00;100480.63;5036889;28;20033;-72
2023/08/20 09:32:04;;;;;;;6.40;4.10;;;;;;;35.59;100.00;100412.88;5036785;28;20033;-72
2023/08/20 09:34:38;;;;;;;6.13;4.00;;;;;;;35.71;100.00;100453.69;5036558;28;20525;-72
2023/08/20 09:37:03;;;;;;;5.45;4.07;;;;;;;34.85;100.00;100422.97;5054241;28;20092;-73
2023/08/20 09:39:29;;;;;;;7.32;4.00;;;;;;;35.46;100.00;100413.59;5054443;28;20503;-72
2023/08/20 09:41:57;;;;;;;5.22;4.00;;;;;;;35.32;100.00;100463.94;5036072;28;20033;-71
2023/08/20 09:44:23;;;;;;;6.35;4.07;;;;;;;35.45;100.00;100437.59;5054350;28;20037;-72
2023/08/20 09:46:50;;;;;;;6.45;4.45;;;;;;;35.99;100.00;100435.97;5053641;28;20041;-71
2023/08/20 09:49:18;;;;;;;11.50;4.20;;;;;;;35.60;100.00;100390.66;5054131;28;20033;-72
2023/08/20 09:51:50;;;;;;;5.25;4.10;;;;;;;35.68;100.00;100441.66;5036226;28;20025;-73
2023/08/20 09:54:33;;;;;;;5.30;4.13;;;;;;;35.59;100.00;100381.94;5053786;28;20032;-72
2023/08/20 09:57:01;;;;;;;5.57;4.22;;;;;;;35.79;100.00;100400.59;5036266;28;20090;-72
2023/08/20 09:59:28;;;;;;;5.97;4.32;;;;;;;35.91;100.00;100422.03;5053943;28;20033;-72
2023/08/20 10:01:55;;;;;;;7.10;4.45;;;;;;;35.35;100.00;100355.88;5053854;28;20037;-72
2023/08/20 10:04:22;;;;;;;7.25;4.80;;;;;;;35.73;100.00;100385.47;5053915;28;20056;-72
2023/08/20 10:06:48;;;;;;;6.47;4.68;;;;;;;35.96;100.00;100427.56;5053953;28;20033;-73
2023/08/20 10:09:14;;;;;;;9.00;5.35;;;;;;;36.12;100.00;100430.72;5053359;28;20136;-73
2023/08/20 10:11:40;;;;;;;5.50;4.68;;;;;;;36.36;100.00;100392.28;5035964;28;20115;-72
2023/08/20 10:14:06;;;;;;;7.05;5.15;;;;;;;35.64;100.00;100399.84;5035698;28;20043;-73
2023/08/20 10:16:33;;;;;;;7.70;4.88;;;;;;;35.67;100.00;100452.44;5053939;28;20025;-71
2023/08/20 10:19:02;;;;;;;7.90;4.75;;;;;;;36.19;100.00;100381.22;5035570;28;20495;-71
2023/08/20 10:21:28;;;;;;;5.90;4.80;;;;;;;35.94;100.00;100456.09;5053427;28;20029;-70
2023/08/20 10:23:53;;;;;;;8.50;4.80;;;;;;;36.13;100.00;100456.19;5053604;28;20074;-71
2023/08/20 10:26:21;;;;;;;6.63;5.10;;;;;;;35.42;100.00;100445.88;5053602;28;20487;-71
2023/08/20 10:28:47;;;;;;;7.68;5.03;;;;;;;35.99;100.00;100478.34;5053481;28;20059;-71
2023/08/20 10:31:15;;;;;;;10.07;5.50;;;;;;;36.31;100.00;100434.50;5053384;28;20029;-71
2023/08/20 10:33:47;;;;;;;7.95;5.40;;;;;;;36.10;100.00;100464.53;5052881;28;20550;-71
2023/08/20 10:36:17;;;;;;;6.57;5.28;;;;;;;36.80;100.00;100429.75;5053464;28;20115;-71
2023/08/20 10:38:45;;;;;;;5.13;4.68;;;;;;;35.58;100.00;100432.41;5053439;28;20420;-71
2023/08/20 10:41:11;;;;;;;8.07;5.68;;;;;;;36.63;100.00;100459.50;5052972;28;20416;-71
2023/08/20 10:43:38;;;;;;;6.55;5.50;;;;;;;36.44;100.00;100472.50;5052892;28;20033;-70
2023/08/20 10:46:07;;;;;;;7.85;5.60;;;;;;;37.20;100.00;100436.75;5035120;28;20068;-71
2023/08/20 10:48:35;;;;;;;7.22;5.97;;;;;;;35.53;100.00;100451.53;5052988;28;20025;-70
2023/08/20 10:51:09;;;;;;;9.30;5.93;;;;;;;36.11;100.00;100473.31;5053340;28;20427;-70
2023/08/20 10:53:35;;;;;;;7.07;5.72;;;;;;;35.29;100.00;100449.25;5053206;28;20060;-71
2023/08/20 10:56:10;;;;;;;8.40;5.53;;;;;;;36.48;100.00;100455.19;5052787;28;20060;-70
2023/08/20 10:58:39;;;;;;;6.90;5.68;;;;;;;35.59;100.00;100431.41;5052699;28;20412;-70
2023/08/20 11:01:21;;;;;;;7.50;5.60;;;;;;;36.39;100.00;100463.44;5052828;28;20036;-70
2023/08/20 11:03:48;;;;;;;9.05;6.18;;;;;;;35.77;100.00;100420.31;5052835;28;20617;-71
2023/08/20 11:06:14;;;;;;;7.22;5.88;;;;;;;35.41;100.00;100494.53;5052842;28;20025;-70
2023/08/20 11:08:41;;;;;;;8.65;5.70;;;;;;;36.20;100.00;100417.31;5052723;28;20107;-70
2023/08/20 11:11:07;;;;;;;7.13;5.95;;;;;;;36.37;100.00;100399.25;5052353;28;20163;-71